Terminal Aerodrome Forecast
Issued by NWS Charleston, WV

Home | Current Version | Previous Version | Text Only | Print | Product List | Glossary On
Versions: 1 2 3 4 5 6 7 8 9 10 11 12 13 14 15 16 17 18 19 20 21 22
229
FTUS41 KRLX 261722
TAFCRW
TAF
KCRW 261722Z 2618/2718 VRB03KT P6SM SCT030
     FM262300 00000KT P6SM SKC
     FM271500 19009KT P6SM SCT050
     FM271700 20012G19KT P6SM BKN050=

USA.gov is the U.S. government's official web portal to all federal, state and local government web resources and services.